sensor_id;sensor_type;location;lat;lon;timestamp;P1;durP1;ratioP1;P2;durP2;ratioP2
11854;SDS011;5987;53.140;8.904;2023-08-07T00:00:04;2.07;;;1.63;;
11854;SDS011;5987;53.140;8.904;2023-08-07T00:03:11;7.60;;;2.10;;
11854;SDS011;5987;53.140;8.904;2023-08-07T00:06:20;2.57;;;1.77;;
11854;SDS011;5987;53.140;8.904;2023-08-07T00:09:23;3.80;;;2.00;;
11854;SDS011;5987;53.140;8.904;2023-08-07T00:12:28;4.00;;;2.00;;
11854;SDS011;5987;53.140;8.904;2023-08-07T00:15:32;2.00;;;1.43;;
11854;SDS011;5987;53.140;8.904;2023-08-07T00:18:36;2.37;;;1.57;;
11854;SDS011;5987;53.140;8.904;2023-08-07T00:21:39;4.23;;;2.00;;
11854;SDS011;5987;53.140;8.904;2023-08-07T00:24:43;4.17;;;2.27;;
11854;SDS011;5987;53.140;8.904;2023-08-07T00:27:48;3.50;;;2.30;;
11854;SDS011;5987;53.140;8.904;2023-08-07T00:30:52;5.93;;;3.00;;
11854;SDS011;5987;53.140;8.904;2023-08-07T00:33:55;3.93;;;2.50;;
11854;SDS011;5987;53.140;8.904;2023-08-07T00:36:59;5.17;;;3.10;;
11854;SDS011;5987;53.140;8.904;2023-08-07T00:40:03;5.50;;;2.73;;
11854;SDS011;5987;53.140;8.904;2023-08-07T00:43:09;5.53;;;3.50;;
11854;SDS011;5987;53.140;8.904;2023-08-07T00:46:13;5.10;;;3.50;;
11854;SDS011;5987;53.140;8.904;2023-08-07T00:49:17;6.77;;;3.87;;
11854;SDS011;5987;53.140;8.904;2023-08-07T00:52:22;9.10;;;3.90;;
11854;SDS011;5987;53.140;8.904;2023-08-07T00:55:26;6.43;;;3.60;;
11854;SDS011;5987;53.140;8.904;2023-08-07T00:58:32;5.90;;;4.20;;
11854;SDS011;5987;53.140;8.904;2023-08-07T01:01:36;6.23;;;3.67;;
11854;SDS011;5987;53.140;8.904;2023-08-07T01:04:40;6.40;;;4.40;;
11854;SDS011;5987;53.140;8.904;2023-08-07T01:07:46;6.20;;;3.80;;
11854;SDS011;5987;53.140;8.904;2023-08-07T01:10:59;7.13;;;4.30;;
11854;SDS011;5987;53.140;8.904;2023-08-07T01:14:23;7.37;;;4.17;;
11854;SDS011;5987;53.140;8.904;2023-08-07T01:17:36;7.07;;;4.27;;
11854;SDS011;5987;53.140;8.904;2023-08-07T01:20:41;6.87;;;4.10;;
11854;SDS011;5987;53.140;8.904;2023-08-07T01:23:46;8.93;;;4.20;;
11854;SDS011;5987;53.140;8.904;2023-08-07T01:26:53;5.90;;;4.10;;
11854;SDS011;5987;53.140;8.904;2023-08-07T01:30:02;7.77;;;3.80;;
11854;SDS011;5987;53.140;8.904;2023-08-07T01:33:22;5.53;;;3.13;;
11854;SDS011;5987;53.140;8.904;2023-08-07T01:36:33;5.60;;;3.50;;
11854;SDS011;5987;53.140;8.904;2023-08-07T01:39:42;7.43;;;4.00;;
11854;SDS011;5987;53.140;8.904;2023-08-07T01:42:49;7.63;;;3.17;;
11854;SDS011;5987;53.140;8.904;2023-08-07T01:45:53;4.70;;;3.43;;
11854;SDS011;5987;53.140;8.904;2023-08-07T01:48:57;4.43;;;2.90;;
11854;SDS011;5987;53.140;8.904;2023-08-07T01:52:01;12.27;;;3.13;;
11854;SDS011;5987;53.140;8.904;2023-08-07T01:55:06;4.50;;;2.93;;
11854;SDS011;5987;53.140;8.904;2023-08-07T01:58:11;6.13;;;4.03;;
11854;SDS011;5987;53.140;8.904;2023-08-07T02:01:14;6.03;;;5.03;;
11854;SDS011;5987;53.140;8.904;2023-08-07T02:04:18;4.43;;;3.33;;
11854;SDS011;5987;53.140;8.904;2023-08-07T02:07:22;7.40;;;4.80;;
11854;SDS011;5987;53.140;8.904;2023-08-07T02:10:27;4.70;;;3.70;;
11854;SDS011;5987;53.140;8.904;2023-08-07T02:13:31;7.63;;;4.87;;
11854;SDS011;5987;53.140;8.904;2023-08-07T02:16:34;5.80;;;3.93;;
11854;SDS011;5987;53.140;8.904;2023-08-07T02:19:39;11.23;;;4.30;;
11854;SDS011;5987;53.140;8.904;2023-08-07T02:22:42;10.87;;;4.40;;
11854;SDS011;5987;53.140;8.904;2023-08-07T02:25:48;5.20;;;3.80;;
11854;SDS011;5987;53.140;8.904;2023-08-07T02:28:52;6.40;;;3.50;;
11854;SDS011;5987;53.140;8.904;2023-08-07T02:31:56;7.00;;;4.27;;
11854;SDS011;5987;53.140;8.904;2023-08-07T02:34:59;7.67;;;3.50;;
11854;SDS011;5987;53.140;8.904;2023-08-07T02:38:03;7.67;;;4.07;;
11854;SDS011;5987;53.140;8.904;2023-08-07T02:41:08;7.57;;;4.43;;
11854;SDS011;5987;53.140;8.904;2023-08-07T02:44:12;5.83;;;4.17;;
11854;SDS011;5987;53.140;8.904;2023-08-07T02:47:15;4.23;;;3.53;;
11854;SDS011;5987;53.140;8.904;2023-08-07T02:50:19;8.20;;;5.33;;
11854;SDS011;5987;53.140;8.904;2023-08-07T02:53:23;8.37;;;4.50;;
11854;SDS011;5987;53.140;8.904;2023-08-07T02:56:28;8.23;;;4.17;;
11854;SDS011;5987;53.140;8.904;2023-08-07T02:59:31;5.73;;;3.73;;
11854;SDS011;5987;53.140;8.904;2023-08-07T03:02:35;7.17;;;4.90;;
11854;SDS011;5987;53.140;8.904;2023-08-07T03:05:47;7.50;;;4.57;;
11854;SDS011;5987;53.140;8.904;2023-08-07T03:08:52;8.30;;;4.93;;
11854;SDS011;5987;53.140;8.904;2023-08-07T03:11:57;6.37;;;3.97;;
11854;SDS011;5987;53.140;8.904;2023-08-07T03:15:06;5.90;;;4.27;;
11854;SDS011;5987;53.140;8.904;2023-08-07T03:18:10;5.70;;;4.37;;
11854;SDS011;5987;53.140;8.904;2023-08-07T03:21:13;8.13;;;4.27;;
11854;SDS011;5987;53.140;8.904;2023-08-07T03:24:17;7.53;;;4.33;;
11854;SDS011;5987;53.140;8.904;2023-08-07T03:27:22;7.87;;;4.73;;
11854;SDS011;5987;53.140;8.904;2023-08-07T03:30:26;5.53;;;3.57;;
11854;SDS011;5987;53.140;8.904;2023-08-07T03:33:30;11.13;;;4.30;;
11854;SDS011;5987;53.140;8.904;2023-08-07T03:36:34;6.30;;;3.83;;
11854;SDS011;5987;53.140;8.904;2023-08-07T03:39:38;7.57;;;3.90;;
11854;SDS011;5987;53.140;8.904;2023-08-07T03:42:43;5.87;;;4.03;;
11854;SDS011;5987;53.140;8.904;2023-08-07T03:45:47;5.80;;;4.10;;
11854;SDS011;5987;53.140;8.904;2023-08-07T03:49:02;5.33;;;3.93;;
11854;SDS011;5987;53.140;8.904;2023-08-07T03:52:06;5.87;;;3.90;;
11854;SDS011;5987;53.140;8.904;2023-08-07T03:55:10;5.03;;;3.07;;
11854;SDS011;5987;53.140;8.904;2023-08-07T03:58:15;6.40;;;3.27;;
11854;SDS011;5987;53.140;8.904;2023-08-07T04:01:18;5.83;;;2.60;;
11854;SDS011;5987;53.140;8.904;2023-08-07T04:04:22;4.63;;;3.00;;
11854;SDS011;5987;53.140;8.904;2023-08-07T04:07:26;4.47;;;2.40;;
11854;SDS011;5987;53.140;8.904;2023-08-07T04:10:29;3.07;;;2.40;;
11854;SDS011;5987;53.140;8.904;2023-08-07T04:13:34;3.73;;;2.40;;
11854;SDS011;5987;53.140;8.904;2023-08-07T04:16:38;4.93;;;2.20;;
11854;SDS011;5987;53.140;8.904;2023-08-07T04:19:42;1.53;;;1.27;;
11854;SDS011;5987;53.140;8.904;2023-08-07T04:22:45;1.57;;;1.43;;
11854;SDS011;5987;53.140;8.904;2023-08-07T04:25:49;1.77;;;1.67;;
11854;SDS011;5987;53.140;8.904;2023-08-07T04:28:56;2.10;;;1.57;;
11854;SDS011;5987;53.140;8.904;2023-08-07T04:31:59;1.63;;;1.37;;
11854;SDS011;5987;53.140;8.904;2023-08-07T04:35:03;3.70;;;1.53;;
11854;SDS011;5987;53.140;8.904;2023-08-07T04:38:08;3.23;;;1.73;;
11854;SDS011;5987;53.140;8.904;2023-08-07T04:41:12;2.93;;;1.83;;
11854;SDS011;5987;53.140;8.904;2023-08-07T04:44:17;4.43;;;1.50;;
11854;SDS011;5987;53.140;8.904;2023-08-07T04:47:20;2.03;;;1.40;;
11854;SDS011;5987;53.140;8.904;2023-08-07T04:50:24;2.20;;;1.33;;
11854;SDS011;5987;53.140;8.904;2023-08-07T04:53:28;3.00;;;1.57;;
11854;SDS011;5987;53.140;8.904;2023-08-07T04:59:37;2.80;;;1.70;;
11854;SDS011;5987;53.140;8.904;2023-08-07T05:02:40;2.83;;;1.77;;
11854;SDS011;5987;53.140;8.904;2023-08-07T05:05:45;1.97;;;1.60;;
11854;SDS011;5987;53.140;8.904;2023-08-07T05:08:49;7.30;;;1.70;;
11854;SDS011;5987;53.140;8.904;2023-08-07T05:11:53;4.27;;;1.50;;
11854;SDS011;5987;53.140;8.904;2023-08-07T05:15:00;3.10;;;1.70;;
11854;SDS011;5987;53.140;8.904;2023-08-07T05:18:04;2.10;;;1.30;;
11854;SDS011;5987;53.140;8.904;2023-08-07T05:21:08;4.53;;;1.47;;
11854;SDS011;5987;53.140;8.904;2023-08-07T05:24:13;2.93;;;1.30;;
11854;SDS011;5987;53.140;8.904;2023-08-07T05:27:17;2.23;;;1.10;;
11854;SDS011;5987;53.140;8.904;2023-08-07T05:30:22;2.00;;;1.03;;
11854;SDS011;5987;53.140;8.904;2023-08-07T05:33:26;2.50;;;1.27;;
11854;SDS011;5987;53.140;8.904;2023-08-07T05:36:29;2.40;;;1.10;;
11854;SDS011;5987;53.140;8.904;2023-08-07T05:39:34;1.80;;;1.00;;
11854;SDS011;5987;53.140;8.904;2023-08-07T05:42:38;2.33;;;1.23;;
11854;SDS011;5987;53.140;8.904;2023-08-07T05:45:44;3.17;;;0.80;;
11854;SDS011;5987;53.140;8.904;2023-08-07T05:48:48;1.93;;;1.00;;
11854;SDS011;5987;53.140;8.904;2023-08-07T05:51:53;2.03;;;1.50;;
11854;SDS011;5987;53.140;8.904;2023-08-07T05:55:00;1.80;;;1.63;;
11854;SDS011;5987;53.140;8.904;2023-08-07T05:58:07;1.97;;;1.00;;
11854;SDS011;5987;53.140;8.904;2023-08-07T06:01:12;5.57;;;1.47;;
11854;SDS011;5987;53.140;8.904;2023-08-07T06:04:19;1.97;;;0.90;;
11854;SDS011;5987;53.140;8.904;2023-08-07T06:07:23;3.20;;;0.90;;
11854;SDS011;5987;53.140;8.904;2023-08-07T06:10:27;4.13;;;1.13;;
11854;SDS011;5987;53.140;8.904;2023-08-07T06:13:30;1.00;;;0.73;;
11854;SDS011;5987;53.140;8.904;2023-08-07T06:16:38;2.63;;;0.83;;
11854;SDS011;5987;53.140;8.904;2023-08-07T06:19:42;2.13;;;1.53;;
11854;SDS011;5987;53.140;8.904;2023-08-07T06:22:45;1.27;;;1.07;;
11854;SDS011;5987;53.140;8.904;2023-08-07T06:25:49;1.33;;;1.23;;
11854;SDS011;5987;53.140;8.904;2023-08-07T06:28:59;2.80;;;1.57;;
11854;SDS011;5987;53.140;8.904;2023-08-07T06:32:05;2.30;;;1.30;;
11854;SDS011;5987;53.140;8.904;2023-08-07T06:35:12;2.97;;;1.20;;
11854;SDS011;5987;53.140;8.904;2023-08-07T06:38:15;3.27;;;1.23;;
11854;SDS011;5987;53.140;8.904;2023-08-07T06:41:19;1.70;;;1.10;;
11854;SDS011;5987;53.140;8.904;2023-08-07T06:44:23;3.20;;;1.00;;
11854;SDS011;5987;53.140;8.904;2023-08-07T06:47:28;3.70;;;1.20;;
11854;SDS011;5987;53.140;8.904;2023-08-07T06:50:31;4.20;;;1.33;;
11854;SDS011;5987;53.140;8.904;2023-08-07T06:53:38;1.67;;;1.20;;
11854;SDS011;5987;53.140;8.904;2023-08-07T06:56:41;3.30;;;1.47;;
11854;SDS011;5987;53.140;8.904;2023-08-07T06:59:46;4.23;;;1.63;;
11854;SDS011;5987;53.140;8.904;2023-08-07T07:02:51;3.10;;;1.53;;
11854;SDS011;5987;53.140;8.904;2023-08-07T07:05:55;4.47;;;1.80;;
11854;SDS011;5987;53.140;8.904;2023-08-07T07:08:58;2.10;;;1.27;;
11854;SDS011;5987;53.140;8.904;2023-08-07T07:12:02;2.80;;;1.50;;
11854;SDS011;5987;53.140;8.904;2023-08-07T07:15:27;5.83;;;2.20;;
11854;SDS011;5987;53.140;8.904;2023-08-07T07:18:32;3.13;;;1.83;;
11854;SDS011;5987;53.140;8.904;2023-08-07T07:21:36;4.13;;;1.90;;
11854;SDS011;5987;53.140;8.904;2023-08-07T07:24:40;7.27;;;2.10;;
11854;SDS011;5987;53.140;8.904;2023-08-07T07:27:43;4.53;;;1.70;;
11854;SDS011;5987;53.140;8.904;2023-08-07T07:30:47;8.43;;;1.90;;
11854;SDS011;5987;53.140;8.904;2023-08-07T07:33:53;8.77;;;2.57;;
11854;SDS011;5987;53.140;8.904;2023-08-07T07:36:57;8.27;;;2.53;;
11854;SDS011;5987;53.140;8.904;2023-08-07T07:40:01;4.20;;;1.80;;
11854;SDS011;5987;53.140;8.904;2023-08-07T07:43:04;3.60;;;1.60;;
11854;SDS011;5987;53.140;8.904;2023-08-07T07:46:08;4.60;;;1.80;;
11854;SDS011;5987;53.140;8.904;2023-08-07T07:49:13;4.83;;;1.80;;
11854;SDS011;5987;53.140;8.904;2023-08-07T07:52:17;9.80;;;2.20;;
11854;SDS011;5987;53.140;8.904;2023-08-07T07:55:21;6.07;;;2.20;;
11854;SDS011;5987;53.140;8.904;2023-08-07T07:58:25;6.87;;;2.53;;
11854;SDS011;5987;53.140;8.904;2023-08-07T08:01:28;6.00;;;2.30;;
11854;SDS011;5987;53.140;8.904;2023-08-07T08:04:33;8.80;;;3.50;;
11854;SDS011;5987;53.140;8.904;2023-08-07T08:07:37;9.93;;;2.07;;
11854;SDS011;5987;53.140;8.904;2023-08-07T08:10:42;4.80;;;1.60;;
11854;SDS011;5987;53.140;8.904;2023-08-07T08:13:46;4.07;;;2.03;;
11854;SDS011;5987;53.140;8.904;2023-08-07T08:16:50;7.40;;;2.00;;
11854;SDS011;5987;53.140;8.904;2023-08-07T08:19:55;5.43;;;1.87;;
11854;SDS011;5987;53.140;8.904;2023-08-07T08:22:59;5.43;;;1.93;;
11854;SDS011;5987;53.140;8.904;2023-08-07T08:26:02;11.40;;;2.47;;
11854;SDS011;5987;53.140;8.904;2023-08-07T08:29:06;4.80;;;2.30;;
11854;SDS011;5987;53.140;8.904;2023-08-07T08:32:10;9.80;;;3.33;;
11854;SDS011;5987;53.140;8.904;2023-08-07T08:35:15;5.80;;;1.90;;
11854;SDS011;5987;53.140;8.904;2023-08-07T08:38:19;4.80;;;1.40;;
11854;SDS011;5987;53.140;8.904;2023-08-07T08:41:23;9.40;;;2.30;;
11854;SDS011;5987;53.140;8.904;2023-08-07T08:44:28;8.87;;;1.90;;
11854;SDS011;5987;53.140;8.904;2023-08-07T08:47:34;3.20;;;1.50;;
11854;SDS011;5987;53.140;8.904;2023-08-07T08:50:42;6.20;;;1.63;;
11854;SDS011;5987;53.140;8.904;2023-08-07T08:53:47;6.40;;;1.37;;
11854;SDS011;5987;53.140;8.904;2023-08-07T08:56:53;7.77;;;1.53;;
11854;SDS011;5987;53.140;8.904;2023-08-07T09:00:00;4.40;;;1.83;;
11854;SDS011;5987;53.140;8.904;2023-08-07T09:03:08;7.97;;;1.60;;
11854;SDS011;5987;53.140;8.904;2023-08-07T09:06:14;6.90;;;1.53;;
11854;SDS011;5987;53.140;8.904;2023-08-07T09:09:19;4.43;;;1.73;;
11854;SDS011;5987;53.140;8.904;2023-08-07T09:12:25;2.20;;;1.50;;
11854;SDS011;5987;53.140;8.904;2023-08-07T09:15:34;8.87;;;1.93;;
11854;SDS011;5987;53.140;8.904;2023-08-07T09:18:41;7.30;;;1.73;;
11854;SDS011;5987;53.140;8.904;2023-08-07T09:21:46;11.93;;;3.17;;
11854;SDS011;5987;53.140;8.904;2023-08-07T09:24:50;6.80;;;2.07;;
11854;SDS011;5987;53.140;8.904;2023-08-07T09:27:54;4.47;;;1.73;;
11854;SDS011;5987;53.140;8.904;2023-08-07T09:30:59;7.27;;;2.23;;
11854;SDS011;5987;53.140;8.904;2023-08-07T09:34:03;7.23;;;1.90;;
11854;SDS011;5987;53.140;8.904;2023-08-07T09:37:09;10.60;;;2.50;;
11854;SDS011;5987;53.140;8.904;2023-08-07T09:40:13;4.97;;;2.30;;
11854;SDS011;5987;53.140;8.904;2023-08-07T09:43:21;8.23;;;2.53;;
11854;SDS011;5987;53.140;8.904;2023-08-07T09:46:25;4.73;;;2.53;;
11854;SDS011;5987;53.140;8.904;2023-08-07T09:49:32;5.23;;;1.90;;
11854;SDS011;5987;53.140;8.904;2023-08-07T09:52:37;3.60;;;1.80;;
11854;SDS011;5987;53.140;8.904;2023-08-07T09:55:43;7.27;;;1.90;;
11854;SDS011;5987;53.140;8.904;2023-08-07T09:58:47;4.43;;;1.50;;
11854;SDS011;5987;53.140;8.904;2023-08-07T10:01:51;6.53;;;1.20;;
11854;SDS011;5987;53.140;8.904;2023-08-07T10:04:56;2.57;;;1.37;;
11854;SDS011;5987;53.140;8.904;2023-08-07T10:08:01;3.13;;;1.53;;
11854;SDS011;5987;53.140;8.904;2023-08-07T10:11:07;5.80;;;1.40;;
11854;SDS011;5987;53.140;8.904;2023-08-07T10:14:12;2.53;;;1.30;;
11854;SDS011;5987;53.140;8.904;2023-08-07T10:17:17;3.97;;;1.60;;
11854;SDS011;5987;53.140;8.904;2023-08-07T10:20:24;7.03;;;2.20;;
11854;SDS011;5987;53.140;8.904;2023-08-07T10:23:32;2.70;;;1.20;;
11854;SDS011;5987;53.140;8.904;2023-08-07T10:26:40;3.70;;;1.60;;
11854;SDS011;5987;53.140;8.904;2023-08-07T10:29:48;6.63;;;1.40;;
11854;SDS011;5987;53.140;8.904;2023-08-07T10:32:54;3.30;;;1.33;;
11854;SDS011;5987;53.140;8.904;2023-08-07T10:35:59;4.33;;;1.33;;
11854;SDS011;5987;53.140;8.904;2023-08-07T10:39:13;6.57;;;1.50;;
11854;SDS011;5987;53.140;8.904;2023-08-07T10:42:18;5.70;;;1.57;;
11854;SDS011;5987;53.140;8.904;2023-08-07T10:45:35;12.40;;;2.07;;
11854;SDS011;5987;53.140;8.904;2023-08-07T10:48:41;4.73;;;1.30;;
11854;SDS011;5987;53.140;8.904;2023-08-07T10:51:46;7.03;;;1.70;;
11854;SDS011;5987;53.140;8.904;2023-08-07T10:54:51;3.93;;;1.30;;
11854;SDS011;5987;53.140;8.904;2023-08-07T10:57:58;3.07;;;1.13;;
11854;SDS011;5987;53.140;8.904;2023-08-07T11:01:18;3.40;;;1.20;;
11854;SDS011;5987;53.140;8.904;2023-08-07T11:04:43;6.20;;;1.53;;
11854;SDS011;5987;53.140;8.904;2023-08-07T11:07:47;8.20;;;1.97;;
11854;SDS011;5987;53.140;8.904;2023-08-07T11:10:53;7.00;;;1.60;;
11854;SDS011;5987;53.140;8.904;2023-08-07T11:13:58;2.07;;;1.23;;
11854;SDS011;5987;53.140;8.904;2023-08-07T11:17:01;10.17;;;2.23;;
11854;SDS011;5987;53.140;8.904;2023-08-07T11:20:06;2.47;;;1.53;;
11854;SDS011;5987;53.140;8.904;2023-08-07T11:23:12;6.00;;;1.50;;
11854;SDS011;5987;53.140;8.904;2023-08-07T11:26:17;2.63;;;1.20;;
11854;SDS011;5987;53.140;8.904;2023-08-07T11:29:23;6.90;;;1.93;;
11854;SDS011;5987;53.140;8.904;2023-08-07T11:32:27;2.27;;;1.30;;
11854;SDS011;5987;53.140;8.904;2023-08-07T11:35:31;7.07;;;1.50;;
11854;SDS011;5987;53.140;8.904;2023-08-07T11:38:36;5.50;;;1.70;;
11854;SDS011;5987;53.140;8.904;2023-08-07T11:41:42;1.40;;;1.10;;
11854;SDS011;5987;53.140;8.904;2023-08-07T11:44:49;3.73;;;1.67;;
11854;SDS011;5987;53.140;8.904;2023-08-07T11:47:53;3.73;;;1.20;;
11854;SDS011;5987;53.140;8.904;2023-08-07T11:50:58;5.60;;;1.30;;
11854;SDS011;5987;53.140;8.904;2023-08-07T11:54:02;3.97;;;1.57;;
11854;SDS011;5987;53.140;8.904;2023-08-07T11:57:15;5.07;;;1.57;;
11854;SDS011;5987;53.140;8.904;2023-08-07T12:00:20;6.20;;;1.40;;
11854;SDS011;5987;53.140;8.904;2023-08-07T12:03:29;2.10;;;1.17;;
11854;SDS011;5987;53.140;8.904;2023-08-07T12:06:36;2.93;;;1.43;;
11854;SDS011;5987;53.140;8.904;2023-08-07T12:09:41;2.63;;;1.20;;
11854;SDS011;5987;53.140;8.904;2023-08-07T12:12:47;4.77;;;2.07;;
11854;SDS011;5987;53.140;8.904;2023-08-07T12:15:51;4.67;;;1.17;;
11854;SDS011;5987;53.140;8.904;2023-08-07T12:18:58;5.07;;;1.43;;
11854;SDS011;5987;53.140;8.904;2023-08-07T12:22:01;4.17;;;1.40;;
11854;SDS011;5987;53.140;8.904;2023-08-07T12:25:06;2.97;;;1.43;;
11854;SDS011;5987;53.140;8.904;2023-08-07T12:28:12;3.63;;;1.53;;
11854;SDS011;5987;53.140;8.904;2023-08-07T12:31:16;1.97;;;1.27;;
11854;SDS011;5987;53.140;8.904;2023-08-07T12:34:20;3.97;;;1.53;;
11854;SDS011;5987;53.140;8.904;2023-08-07T12:37:27;5.50;;;1.50;;
11854;SDS011;5987;53.140;8.904;2023-08-07T12:40:31;5.13;;;1.50;;
11854;SDS011;5987;53.140;8.904;2023-08-07T12:43:38;3.70;;;1.50;;
11854;SDS011;5987;53.140;8.904;2023-08-07T12:46:42;4.73;;;1.40;;
11854;SDS011;5987;53.140;8.904;2023-08-07T12:49:46;6.07;;;1.30;;
11854;SDS011;5987;53.140;8.904;2023-08-07T12:52:50;4.13;;;2.13;;
11854;SDS011;5987;53.140;8.904;2023-08-07T12:55:54;2.37;;;1.30;;
11854;SDS011;5987;53.140;8.904;2023-08-07T12:58:59;6.47;;;1.37;;
11854;SDS011;5987;53.140;8.904;2023-08-07T13:02:03;1.90;;;1.07;;
11854;SDS011;5987;53.140;8.904;2023-08-07T13:05:07;3.87;;;1.40;;
11854;SDS011;5987;53.140;8.904;2023-08-07T13:08:11;3.07;;;1.70;;
11854;SDS011;5987;53.140;8.904;2023-08-07T13:11:15;5.63;;;2.10;;
11854;SDS011;5987;53.140;8.904;2023-08-07T13:14:21;5.13;;;1.77;;
11854;SDS011;5987;53.140;8.904;2023-08-07T13:17:24;11.07;;;1.93;;
11854;SDS011;5987;53.140;8.904;2023-08-07T13:20:28;6.57;;;1.70;;
11854;SDS011;5987;53.140;8.904;2023-08-07T13:23:35;6.33;;;1.77;;
11854;SDS011;5987;53.140;8.904;2023-08-07T13:26:39;7.50;;;2.30;;
11854;SDS011;5987;53.140;8.904;2023-08-07T13:29:47;7.70;;;2.17;;
11854;SDS011;5987;53.140;8.904;2023-08-07T13:32:51;5.53;;;1.80;;
11854;SDS011;5987;53.140;8.904;2023-08-07T13:35:55;5.67;;;1.73;;
11854;SDS011;5987;53.140;8.904;2023-08-07T13:38:58;4.27;;;2.07;;
11854;SDS011;5987;53.140;8.904;2023-08-07T13:42:03;10.23;;;2.20;;
11854;SDS011;5987;53.140;8.904;2023-08-07T13:45:26;4.57;;;1.83;;
11854;SDS011;5987;53.140;8.904;2023-08-07T13:48:30;5.20;;;1.40;;
11854;SDS011;5987;53.140;8.904;2023-08-07T13:51:35;4.83;;;1.77;;
11854;SDS011;5987;53.140;8.904;2023-08-07T13:54:39;3.33;;;1.80;;
11854;SDS011;5987;53.140;8.904;2023-08-07T13:57:44;4.37;;;1.50;;
11854;SDS011;5987;53.140;8.904;2023-08-07T14:00:49;3.90;;;1.50;;
11854;SDS011;5987;53.140;8.904;2023-08-07T14:03:53;4.43;;;1.63;;
11854;SDS011;5987;53.140;8.904;2023-08-07T14:06:58;6.37;;;1.47;;
11854;SDS011;5987;53.140;8.904;2023-08-07T14:10:02;3.37;;;1.57;;
11854;SDS011;5987;53.140;8.904;2023-08-07T14:13:07;2.30;;;1.50;;
11854;SDS011;5987;53.140;8.904;2023-08-07T14:16:15;3.17;;;1.33;;
11854;SDS011;5987;53.140;8.904;2023-08-07T14:19:19;1.80;;;0.90;;
11854;SDS011;5987;53.140;8.904;2023-08-07T14:22:23;5.73;;;1.70;;
11854;SDS011;5987;53.140;8.904;2023-08-07T14:25:26;4.43;;;1.50;;
11854;SDS011;5987;53.140;8.904;2023-08-07T14:28:32;7.13;;;1.70;;
11854;SDS011;5987;53.140;8.904;2023-08-07T14:31:37;3.97;;;1.70;;
11854;SDS011;5987;53.140;8.904;2023-08-07T14:34:41;2.63;;;1.40;;
11854;SDS011;5987;53.140;8.904;2023-08-07T14:37:45;2.13;;;1.10;;
11854;SDS011;5987;53.140;8.904;2023-08-07T14:40:50;3.37;;;1.37;;
11854;SDS011;5987;53.140;8.904;2023-08-07T14:43:53;3.90;;;1.10;;
11854;SDS011;5987;53.140;8.904;2023-08-07T14:47:01;2.33;;;0.90;;
11854;SDS011;5987;53.140;8.904;2023-08-07T14:50:08;2.77;;;1.03;;
11854;SDS011;5987;53.140;8.904;2023-08-07T14:53:13;5.13;;;1.30;;
11854;SDS011;5987;53.140;8.904;2023-08-07T14:56:16;4.87;;;1.43;;
11854;SDS011;5987;53.140;8.904;2023-08-07T14:59:21;3.57;;;1.40;;
11854;SDS011;5987;53.140;8.904;2023-08-07T15:02:27;5.60;;;1.40;;
11854;SDS011;5987;53.140;8.904;2023-08-07T15:05:31;3.07;;;1.23;;
11854;SDS011;5987;53.140;8.904;2023-08-07T15:08:35;2.77;;;1.13;;
11854;SDS011;5987;53.140;8.904;2023-08-07T15:11:42;4.17;;;1.33;;
11854;SDS011;5987;53.140;8.904;2023-08-07T15:14:46;4.57;;;1.43;;
11854;SDS011;5987;53.140;8.904;2023-08-07T15:17:52;3.53;;;1.20;;
11854;SDS011;5987;53.140;8.904;2023-08-07T15:20:58;3.63;;;1.50;;
11854;SDS011;5987;53.140;8.904;2023-08-07T15:24:03;1.57;;;1.07;;
11854;SDS011;5987;53.140;8.904;2023-08-07T15:27:07;1.20;;;1.07;;
11854;SDS011;5987;53.140;8.904;2023-08-07T15:30:11;2.63;;;1.10;;
11854;SDS011;5987;53.140;8.904;2023-08-07T15:33:25;2.73;;;1.10;;
11854;SDS011;5987;53.140;8.904;2023-08-07T15:36:35;3.10;;;1.30;;
11854;SDS011;5987;53.140;8.904;2023-08-07T15:39:39;0.97;;;0.80;;
11854;SDS011;5987;53.140;8.904;2023-08-07T15:42:43;1.53;;;1.00;;
11854;SDS011;5987;53.140;8.904;2023-08-07T15:45:50;1.67;;;1.17;;
11854;SDS011;5987;53.140;8.904;2023-08-07T15:48:56;3.60;;;1.40;;
11854;SDS011;5987;53.140;8.904;2023-08-07T15:52:00;9.23;;;1.60;;
11854;SDS011;5987;53.140;8.904;2023-08-07T15:55:08;2.03;;;1.10;;
11854;SDS011;5987;53.140;8.904;2023-08-07T15:58:12;5.33;;;1.50;;
11854;SDS011;5987;53.140;8.904;2023-08-07T16:01:15;4.90;;;1.83;;
11854;SDS011;5987;53.140;8.904;2023-08-07T16:04:27;5.90;;;2.13;;
11854;SDS011;5987;53.140;8.904;2023-08-07T16:07:43;12.90;;;1.83;;
11854;SDS011;5987;53.140;8.904;2023-08-07T16:10:47;2.53;;;1.57;;
11854;SDS011;5987;53.140;8.904;2023-08-07T16:13:54;2.93;;;1.63;;
11854;SDS011;5987;53.140;8.904;2023-08-07T16:17:02;5.30;;;2.30;;
11854;SDS011;5987;53.140;8.904;2023-08-07T16:20:12;3.87;;;1.77;;
11854;SDS011;5987;53.140;8.904;2023-08-07T16:23:19;5.17;;;2.10;;
11854;SDS011;5987;53.140;8.904;2023-08-07T16:26:23;3.10;;;1.70;;
11854;SDS011;5987;53.140;8.904;2023-08-07T16:29:28;6.87;;;2.60;;
11854;SDS011;5987;53.140;8.904;2023-08-07T16:32:33;9.27;;;1.90;;
11854;SDS011;5987;53.140;8.904;2023-08-07T16:35:43;10.63;;;2.13;;
11854;SDS011;5987;53.140;8.904;2023-08-07T16:38:53;5.70;;;1.63;;
11854;SDS011;5987;53.140;8.904;2023-08-07T16:42:19;6.20;;;2.13;;
11854;SDS011;5987;53.140;8.904;2023-08-07T16:45:24;3.03;;;1.43;;
11854;SDS011;5987;53.140;8.904;2023-08-07T16:48:39;7.83;;;2.20;;
11854;SDS011;5987;53.140;8.904;2023-08-07T16:51:58;10.87;;;2.37;;
11854;SDS011;5987;53.140;8.904;2023-08-07T16:55:03;5.97;;;2.20;;
11854;SDS011;5987;53.140;8.904;2023-08-07T16:58:13;6.07;;;1.90;;
11854;SDS011;5987;53.140;8.904;2023-08-07T17:01:17;7.17;;;1.87;;
11854;SDS011;5987;53.140;8.904;2023-08-07T17:04:21;4.83;;;1.60;;
11854;SDS011;5987;53.140;8.904;2023-08-07T17:07:29;2.87;;;1.87;;
11854;SDS011;5987;53.140;8.904;2023-08-07T17:10:40;4.63;;;2.07;;
11854;SDS011;5987;53.140;8.904;2023-08-07T17:13:44;7.67;;;2.23;;
11854;SDS011;5987;53.140;8.904;2023-08-07T17:16:47;6.10;;;2.30;;
11854;SDS011;5987;53.140;8.904;2023-08-07T17:19:51;6.57;;;1.90;;
11854;SDS011;5987;53.140;8.904;2023-08-07T17:22:57;6.00;;;1.90;;
11854;SDS011;5987;53.140;8.904;2023-08-07T17:26:01;9.87;;;2.00;;
11854;SDS011;5987;53.140;8.904;2023-08-07T17:29:05;5.73;;;2.00;;
11854;SDS011;5987;53.140;8.904;2023-08-07T17:32:09;7.97;;;2.40;;
11854;SDS011;5987;53.140;8.904;2023-08-07T17:35:16;6.47;;;1.70;;
11854;SDS011;5987;53.140;8.904;2023-08-07T17:38:23;8.33;;;1.93;;
11854;SDS011;5987;53.140;8.904;2023-08-07T17:41:27;3.93;;;1.53;;
11854;SDS011;5987;53.140;8.904;2023-08-07T17:44:31;3.87;;;1.67;;
11854;SDS011;5987;53.140;8.904;2023-08-07T17:47:35;2.40;;;0.87;;
11854;SDS011;5987;53.140;8.904;2023-08-07T17:50:40;4.30;;;1.40;;
11854;SDS011;5987;53.140;8.904;2023-08-07T17:53:45;8.00;;;2.27;;
11854;SDS011;5987;53.140;8.904;2023-08-07T17:56:49;4.17;;;1.40;;
11854;SDS011;5987;53.140;8.904;2023-08-07T17:59:53;5.37;;;1.27;;
11854;SDS011;5987;53.140;8.904;2023-08-07T18:02:57;4.47;;;1.77;;
11854;SDS011;5987;53.140;8.904;2023-08-07T18:06:00;3.13;;;1.00;;
11854;SDS011;5987;53.140;8.904;2023-08-07T18:09:06;5.37;;;1.43;;
11854;SDS011;5987;53.140;8.904;2023-08-07T18:12:14;7.13;;;1.50;;
11854;SDS011;5987;53.140;8.904;2023-08-07T18:15:38;5.33;;;1.83;;
11854;SDS011;5987;53.140;8.904;2023-08-07T18:18:42;4.60;;;1.43;;
11854;SDS011;5987;53.140;8.904;2023-08-07T18:21:46;3.63;;;1.40;;
11854;SDS011;5987;53.140;8.904;2023-08-07T18:24:52;5.33;;;1.37;;
11854;SDS011;5987;53.140;8.904;2023-08-07T18:28:01;6.00;;;1.53;;
11854;SDS011;5987;53.140;8.904;2023-08-07T18:31:16;1.57;;;1.03;;
11854;SDS011;5987;53.140;8.904;2023-08-07T18:34:37;2.40;;;1.57;;
11854;SDS011;5987;53.140;8.904;2023-08-07T18:37:41;5.97;;;1.63;;
11854;SDS011;5987;53.140;8.904;2023-08-07T18:40:46;6.53;;;1.33;;
11854;SDS011;5987;53.140;8.904;2023-08-07T18:43:50;3.30;;;1.00;;
11854;SDS011;5987;53.140;8.904;2023-08-07T18:46:54;3.50;;;1.50;;
11854;SDS011;5987;53.140;8.904;2023-08-07T18:49:58;2.83;;;1.23;;
11854;SDS011;5987;53.140;8.904;2023-08-07T18:53:02;4.13;;;1.27;;
11854;SDS011;5987;53.140;8.904;2023-08-07T18:56:07;2.83;;;1.30;;